This is the latest recevied weather packets stored in our database for station/object WX0ABE-13. If no packets are shown the sender has not sent any weather packets the latest 10 day(s).
| Time | Temp. | Humidity | Pressure | Rain* | Wind** | Luminosity | Snow |
|---|---|---|---|---|---|---|---|
| 1787962115 | 32.22° C | 39% | 1014.9 hPa | 0 mm | - | 19 W/m² | - |
| 1787961810 | 32.78° C | 38% | 1014.7 hPa | 0 mm | - | 29 W/m² | - |
| 1787961508 | 33.33° C | 35% | 1014.6 hPa | 0 mm | - | 34 W/m² | - |
| 1787961209 | 33.89° C | 33% | 1014.6 hPa | 0 mm | - | 32 W/m² | - |
| 1787960907 | 35° C | 30% | 1014.8 hPa | 0 mm | - | 31 W/m² | - |
| 1787960603 | 35.56° C | 25% | 1014.6 hPa | 0 mm | - | 49 W/m² | - |
| 1787960302 | 36.11° C | 23% | 1014.5 hPa | 0 mm | - | 82 W/m² | - |
| 1787960002 | 36.11° C | 21% | 1014.6 hPa | 0 mm | - | 104 W/m² | - |
| 1787959697 | 36.11° C | 24% | 1014.5 hPa | 0 mm | - | 95 W/m² | - |
| 1787959393 | 36.67° C | 22% | 1014.5 hPa | 0 mm | - | 94 W/m² | - |
| 1787959087 | 36.67° C | 24% | 1014.4 hPa | 0 mm | - | 109 W/m² | - |
| 1787958782 | 36.67° C | 21% | 1014.4 hPa | 0 mm | - | 290 W/m² | - |
| 1787958478 | 36.67° C | 21% | 1014.4 hPa | 0 mm | - | 320 W/m² | - |
| 1787958174 | 37.22° C | 21% | 1014.4 hPa | 0 mm | - | 332 W/m² | - |
| 1787957872 | 36.67° C | 22% | 1014.5 hPa | 0 mm | - | 131 W/m² | - |
| 1787957566 | 36.67° C | 23% | 1014.6 hPa | 0 mm | - | 110 W/m² | - |
| 1787957263 | 37.22° C | 21% | 1014.6 hPa | 0 mm | - | 140 W/m² | - |
| 1787956961 | 36.67° C | 24% | 1014.5 hPa | 0 mm | - | 364 W/m² | - |
| 1787956656 | 36.67° C | 23% | 1014.6 hPa | 0 mm | - | 368 W/m² | - |
| 1787956351 | 36.67° C | 22% | 1014.9 hPa | 0 mm | - | 295 W/m² | - |
| 1787956047 | 36.11° C | 25% | 1014.7 hPa | 0 mm | - | 314 W/m² | - |
| 1787955742 | 35.56° C | 21% | 1014.7 hPa | 0 mm | - | 248 W/m² | - |
| 1787955438 | 35.56° C | 22% | 1014.7 hPa | 0 mm | - | 138 W/m² | - |
| 1787955135 | 36.11° C | 22% | 1014.7 hPa | 0 mm | - | 161 W/m² | - |
| 1787954832 | 36.67° C | 21% | 1014.8 hPa | 0 mm | - | 207 W/m² | - |
* Rain latest hour (hover to see other rain measurements)
** Current wind speed in m/s (hover to see current wind gust speed)